Time;durP1;ratioP1;P1;durP2;ratioP2;P2;SDS_P1;SDS_P2;PMS_P1;PMS_P2;Temp;Humidity;BMP_temperature;BMP_pressure;BME280_temperature;BME280_humidity;BME280_pressure;Samples;Min_cycle;Max_cycle;Signal;HPM_P1;HPM_P2
2023/07/26 01:04:19;;;;;;;18.02;10.52;;;;;;;;;;8451822;27;20829;-87
2023/07/26 01:08:32;;;;;;;15.85;9.18;;;;;;;;;;8436142;28;20448;-90
2023/07/26 01:12:40;;;;;;;18.00;10.38;;;;;;;;;;8448694;28;20040;-90
2023/07/26 01:16:43;;;;;;;23.63;9.80;;;;;;;;;;8452295;28;20067;-86
2023/07/26 01:20:47;;;;;;;17.98;9.57;;;;;;;;;;8449159;28;20131;-85
2023/07/26 01:24:52;;;;;;;19.90;9.93;;;;;;;;;;8450521;28;20447;-86
2023/07/26 01:28:54;;;;;;;14.52;9.30;;;;;;;;;;8434552;28;20391;-91
2023/07/26 01:33:01;;;;;;;16.83;9.90;;;;;;;;;;8442132;28;20044;-90
2023/07/26 01:37:04;;;;;;;14.60;9.52;;;;;;;;;;8446770;28;20040;-90
2023/07/26 01:41:08;;;;;;;18.17;10.35;;;;;;;;;;8415401;28;20414;-87
2023/07/26 01:45:12;;;;;;;15.13;9.68;;;;;;;;;;8439787;28;20211;-90
2023/07/26 01:49:16;;;;;;;23.45;11.18;;;;;;;;;;8443440;28;20127;-88
2023/07/26 01:53:19;;;;;;;17.42;10.52;;;;;;;;;;8446715;28;20050;-86
2023/07/26 01:57:25;;;;;;;18.92;9.70;;;;;;;;;;8442779;28;20046;-90
2023/07/26 02:01:28;;;;;;;15.15;8.43;;;;;;;;;;8455534;28;20521;-90
2023/07/26 02:05:31;;;;;;;18.45;10.13;;;;;;;;;;8405480;28;20044;-87
2023/07/26 02:09:34;;;;;;;16.55;9.18;;;;;;;;;;8406756;28;20053;-90
2023/07/26 02:13:38;;;;;;;17.13;8.10;;;;;;;;;;8408714;28;20399;-90
2023/07/26 02:17:41;;;;;;;15.00;8.15;;;;;;;;;;8422311;28;20040;-88
2023/07/26 02:21:44;;;;;;;17.48;9.57;;;;;;;;;;8418768;28;20052;-89
2023/07/26 02:25:47;;;;;;;19.92;10.27;;;;;;;;;;8406693;28;20037;-85
2023/07/26 02:29:51;;;;;;;17.98;10.77;;;;;;;;;;8408711;28;20127;-89
2023/07/26 02:33:54;;;;;;;16.67;9.48;;;;;;;;;;8411976;28;20045;-88
2023/07/26 02:37:56;;;;;;;19.83;9.90;;;;;;;;;;8427330;28;20059;-88
2023/07/26 02:41:59;;;;;;;20.85;10.20;;;;;;;;;;8425727;28;20044;-87
2023/07/26 02:46:04;;;;;;;18.98;10.32;;;;;;;;;;8413425;28;20048;-91
2023/07/26 02:50:07;;;;;;;22.48;10.90;;;;;;;;;;8399089;28;20083;-89
2023/07/26 02:54:10;;;;;;;19.67;11.35;;;;;;;;;;8426756;28;20056;-91
2023/07/26 02:58:13;;;;;;;16.10;9.85;;;;;;;;;;8419722;28;20048;-90
2023/07/26 03:02:17;;;;;;;14.18;8.02;;;;;;;;;;8418761;28;20109;-86
2023/07/26 03:06:21;;;;;;;16.30;8.68;;;;;;;;;;8407219;28;20138;-90
2023/07/26 03:10:24;;;;;;;16.73;9.30;;;;;;;;;;8415163;28;20052;-90
2023/07/26 03:14:27;;;;;;;11.93;8.13;;;;;;;;;;8406313;28;20509;-90
2023/07/26 03:18:31;;;;;;;12.48;7.93;;;;;;;;;;8404633;28;20483;-87
2023/07/26 03:22:34;;;;;;;10.95;7.13;;;;;;;;;;8418509;28;20399;-90
2023/07/26 03:26:37;;;;;;;12.02;7.88;;;;;;;;;;8402322;28;20044;-88
2023/07/26 03:30:40;;;;;;;13.38;7.80;;;;;;;;;;8419702;28;20060;-90
2023/07/26 03:34:44;;;;;;;11.27;7.40;;;;;;;;;;8390584;28;20076;-90
2023/07/26 03:38:47;;;;;;;9.77;7.13;;;;;;;;;;8409424;28;20049;-90
2023/07/26 03:42:50;;;;;;;15.80;7.97;;;;;;;;;;8426553;28;20051;-89
2023/07/26 03:46:53;;;;;;;12.55;8.02;;;;;;;;;;8408907;28;20142;-87
2023/07/26 03:50:57;;;;;;;8.38;6.70;;;;;;;;;;8397264;28;20143;-89
2023/07/26 03:55:00;;;;;;;10.07;5.80;;;;;;;;;;8402701;28;20418;-88
2023/07/26 03:59:03;;;;;;;10.75;6.75;;;;;;;;;;8406177;28;20042;-90
2023/07/26 04:03:06;;;;;;;9.13;6.65;;;;;;;;;;8418405;28;20052;-91
2023/07/26 04:07:10;;;;;;;7.68;6.10;;;;;;;;;;8402166;28;20094;-88
2023/07/26 04:11:13;;;;;;;5.80;4.72;;;;;;;;;;8383944;28;20155;-90
2023/07/26 04:15:16;;;;;;;6.40;5.18;;;;;;;;;;8411089;28;20048;-89
2023/07/26 04:19:19;;;;;;;8.70;4.90;;;;;;;;;;8383219;28;20169;-91
2023/07/26 04:23:23;;;;;;;7.03;5.22;;;;;;;;;;8397700;28;20158;-87
2023/07/26 04:27:26;;;;;;;7.05;5.25;;;;;;;;;;8421031;28;20052;-88
2023/07/26 04:31:29;;;;;;;7.60;5.10;;;;;;;;;;8395394;28;20404;-91
2023/07/26 04:35:31;;;;;;;6.97;5.35;;;;;;;;;;8385112;28;20097;-90
2023/07/26 04:39:36;;;;;;;8.85;5.10;;;;;;;;;;8409994;28;20105;-89
2023/07/26 04:43:38;;;;;;;8.10;5.28;;;;;;;;;;8405525;28;20116;-91
2023/07/26 04:47:41;;;;;;;8.10;5.10;;;;;;;;;;8401511;28;20183;-91
2023/07/26 04:51:44;;;;;;;7.82;6.20;;;;;;;;;;8402096;28;20053;-91
2023/07/26 04:55:51;;;;;;;6.88;5.78;;;;;;;;;;8395415;28;20668;-90
2023/07/26 04:59:54;;;;;;;6.03;5.10;;;;;;;;;;8401684;28;20124;-91
2023/07/26 05:03:57;;;;;;;5.90;5.18;;;;;;;;;;8421614;28;20059;-91
2023/07/26 05:08:00;;;;;;;9.52;5.18;;;;;;;;;;8394019;28;20048;-92
2023/07/26 05:12:04;;;;;;;11.13;5.55;;;;;;;;;;8373107;28;20128;-89
2023/07/26 05:16:07;;;;;;;6.00;5.20;;;;;;;;;;8394484;28;20044;-92
2023/07/26 05:20:11;;;;;;;8.35;6.28;;;;;;;;;;8394592;28;20098;-91
2023/07/26 05:24:14;;;;;;;7.18;6.18;;;;;;;;;;8385249;28;20059;-93
2023/07/26 05:28:19;;;;;;;8.77;6.88;;;;;;;;;;8419226;28;20068;-91
2023/07/26 05:32:21;;;;;;;9.82;6.15;;;;;;;;;;8407963;28;20094;-91
2023/07/26 05:36:24;;;;;;;9.43;6.20;;;;;;;;;;8385606;28;20076;-91
2023/07/26 05:40:27;;;;;;;14.32;7.50;;;;;;;;;;8415947;28;20040;-92
2023/07/26 05:44:32;;;;;;;11.68;7.20;;;;;;;;;;8417206;28;20193;-89
2023/07/26 05:48:35;;;;;;;11.13;7.40;;;;;;;;;;8396126;28;20048;-90
2023/07/26 05:52:38;;;;;;;8.80;7.40;;;;;;;;;;8409696;28;20471;-93
2023/07/26 05:56:40;;;;;;;13.45;7.40;;;;;;;;;;8427504;28;20048;-94
2023/07/26 06:00:44;;;;;;;10.93;8.25;;;;;;;;;;8407001;28;20142;-93
2023/07/26 06:04:48;;;;;;;17.50;9.18;;;;;;;;;;8410565;28;20122;-93
2023/07/26 06:08:52;;;;;;;14.80;8.60;;;;;;;;;;8428669;28;20139;-94
2023/07/26 06:12:55;;;;;;;12.25;8.90;;;;;;;;;;8427940;28;20131;-93
2023/07/26 06:17:00;;;;;;;11.40;7.93;;;;;;;;;;8416065;28;20066;-94
2023/07/26 06:21:02;;;;;;;10.27;8.18;;;;;;;;;;8398803;28;20041;-91
2023/07/26 06:25:06;;;;;;;9.18;7.18;;;;;;;;;;8419355;28;20127;-92
2023/07/26 06:29:09;;;;;;;9.80;6.55;;;;;;;;;;8408022;28;20045;-93
2023/07/26 06:33:13;;;;;;;10.98;6.43;;;;;;;;;;8413314;28;20583;-93
2023/07/26 06:37:16;;;;;;;10.85;6.53;;;;;;;;;;8386119;28;20072;-89
2023/07/26 06:41:19;;;;;;;11.15;6.00;;;;;;;;;;8398928;28;20109;-89
2023/07/26 06:45:22;;;;;;;9.80;5.85;;;;;;;;;;8386683;28;20049;-92
2023/07/26 06:49:27;;;;;;;11.32;5.55;;;;;;;;;;8381081;28;20473;-89
2023/07/26 06:53:30;;;;;;;12.77;5.30;;;;;;;;;;8381736;28;20044;-84
2023/07/26 06:57:33;;;;;;;9.80;5.38;;;;;;;;;;8427498;28;20055;-90
2023/07/26 07:01:36;;;;;;;7.65;6.05;;;;;;;;;;8395408;28;20109;-85
2023/07/26 07:05:40;;;;;;;10.30;5.45;;;;;;;;;;8396018;28;20045;-85
2023/07/26 07:09:45;;;;;;;11.40;6.15;;;;;;;;;;8403383;28;20474;-90
2023/07/26 07:13:48;;;;;;;9.50;6.25;;;;;;;;;;8400321;28;20048;-86
2023/07/26 07:17:51;;;;;;;9.27;5.97;;;;;;;;;;8395177;28;20074;-89
2023/07/26 07:21:56;;;;;;;12.75;7.20;;;;;;;;;;8395273;28;20455;-85
2023/07/26 07:25:59;;;;;;;11.90;6.30;;;;;;;;;;8408992;28;20155;-90
2023/07/26 07:30:02;;;;;;;12.55;6.55;;;;;;;;;;8396992;28;20041;-91
2023/07/26 07:34:05;;;;;;;11.25;7.32;;;;;;;;;;8402324;28;20060;-84
2023/07/26 07:38:10;;;;;;;10.10;7.55;;;;;;;;;;8394724;28;20525;-85
2023/07/26 07:42:13;;;;;;;13.30;7.07;;;;;;;;;;8377086;28;20094;-85
2023/07/26 07:46:15;;;;;;;11.60;6.88;;;;;;;;;;8384742;28;20092;-87
2023/07/26 07:50:19;;;;;;;10.73;7.35;;;;;;;;;;8377310;28;20044;-90
2023/07/26 07:54:23;;;;;;;13.18;7.65;;;;;;;;;;8386064;28;20040;-90
2023/07/26 07:58:27;;;;;;;16.63;8.27;;;;;;;;;;8381115;28;20055;-87
2023/07/26 08:02:30;;;;;;;16.13;7.55;;;;;;;;;;8392632;28;20113;-92
2023/07/26 08:06:35;;;;;;;13.70;7.13;;;;;;;;;;8393010;28;20079;-82
2023/07/26 08:10:42;;;;;;;12.88;7.53;;;;;;;;;;8384968;28;20454;-85
2023/07/26 08:14:49;;;;;;;24.05;8.13;;;;;;;;;;8381889;28;20060;-86
2023/07/26 08:18:52;;;;;;;10.45;6.72;;;;;;;;;;8392338;28;20407;-85
2023/07/26 08:22:55;;;;;;;12.48;6.82;;;;;;;;;;8392830;28;20135;-94
2023/07/26 08:27:02;;;;;;;11.82;6.75;;;;;;;;;;8410505;28;20055;-84
2023/07/26 08:31:07;;;;;;;10.43;6.78;;;;;;;;;;8393445;28;20094;-84
2023/07/26 08:35:10;;;;;;;10.35;7.35;;;;;;;;;;8387387;28;20055;-91
2023/07/26 08:39:14;;;;;;;9.88;7.00;;;;;;;;;;8372018;28;20048;-86
2023/07/26 08:43:20;;;;;;;10.20;6.72;;;;;;;;;;8382547;28;20056;-93
2023/07/26 08:47:27;;;;;;;8.70;6.63;;;;;;;;;;8383738;28;20045;-83
2023/07/26 08:51:31;;;;;;;13.95;7.70;;;;;;;;;;8366551;28;20103;-95
2023/07/26 08:55:35;;;;;;;10.95;7.47;;;;;;;;;;8371878;28;20407;-84
2023/07/26 08:59:42;;;;;;;11.93;7.10;;;;;;;;;;8377363;28;20036;-85
2023/07/26 09:03:46;;;;;;;11.68;7.50;;;;;;;;;;8397164;28;20147;-93
2023/07/26 09:07:52;;;;;;;10.82;7.75;;;;;;;;;;8389297;28;20476;-91
2023/07/26 09:11:55;;;;;;;12.35;7.30;;;;;;;;;;8391440;28;20106;-84
2023/07/26 09:16:02;;;;;;;10.57;7.47;;;;;;;;;;8398685;28;20095;-84
2023/07/26 09:20:07;;;;;;;13.18;8.13;;;;;;;;;;8388991;28;20178;-93
2023/07/26 09:24:10;;;;;;;15.27;8.70;;;;;;;;;;8380786;28;20503;-86
2023/07/26 09:28:14;;;;;;;14.70;9.77;;;;;;;;;;8390631;28;20763;-85
2023/07/26 09:32:27;;;;;;;11.20;8.55;;;;;;;;;;8386697;28;20475;-83
2023/07/26 09:36:42;;;;;;;15.02;9.88;;;;;;;;;;8393343;28;20052;-89
2023/07/26 09:40:45;;;;;;;18.40;11.85;;;;;;;;;;8389845;28;20209;-93
2023/07/26 09:44:57;;;;;;;18.92;11.07;;;;;;;;;;8398799;28;20041;-90
2023/07/26 09:49:02;;;;;;;16.50;10.00;;;;;;;;;;8395025;28;20047;-92
2023/07/26 09:53:06;;;;;;;15.38;9.90;;;;;;;;;;8384126;28;20172;-84
2023/07/26 09:57:11;;;;;;;16.80;10.32;;;;;;;;;;8392627;28;20072;-82
2023/07/26 10:01:15;;;;;;;12.38;8.32;;;;;;;;;;8396113;28;20090;-85
2023/07/26 10:05:21;;;;;;;18.15;10.30;;;;;;;;;;8392159;28;20076;-89
2023/07/26 10:09:25;;;;;;;14.38;9.88;;;;;;;;;;8392957;28;20547;-93
2023/07/26 10:13:29;;;;;;;14.00;10.35;;;;;;;;;;8408463;28;20072;-88
2023/07/26 10:17:33;;;;;;;19.73;11.32;;;;;;;;;;8391937;28;20056;-91
2023/07/26 10:21:40;;;;;;;16.70;12.13;;;;;;;;;;8396968;28;20049;-84
2023/07/26 10:25:43;;;;;;;15.48;10.27;;;;;;;;;;8399724;28;20476;-87
2023/07/26 10:29:49;;;;;;;13.95;9.68;;;;;;;;;;8371534;28;20048;-86
2023/07/26 10:33:54;;;;;;;15.18;9.13;;;;;;;;;;8400745;28;20502;-86
2023/07/26 10:38:01;;;;;;;8.98;6.03;;;;;;;;;;8394225;28;20048;-85
2023/07/26 10:42:04;;;;;;;6.90;4.95;;;;;;;;;;8394072;28;20076;-86
2023/07/26 10:46:13;;;;;;;8.68;4.72;;;;;;;;;;8397877;28;20049;-84
2023/07/26 10:50:25;;;;;;;6.85;3.00;;;;;;;;;;8402040;28;20101;-84
2023/07/26 10:54:38;;;;;;;7.50;3.78;;;;;;;;;;8388267;28;20047;-85
2023/07/26 10:58:51;;;;;;;6.75;3.78;;;;;;;;;;8381599;28;20087;-87
2023/07/26 11:03:02;;;;;;;7.28;3.67;;;;;;;;;;8376637;28;20135;-84
2023/07/26 11:07:06;;;;;;;8.35;3.65;;;;;;;;;;8390681;28;20044;-84
2023/07/26 11:11:11;;;;;;;7.70;3.25;;;;;;;;;;8386169;28;20117;-83
2023/07/26 11:15:14;;;;;;;9.25;3.13;;;;;;;;;;8391855;28;20411;-85
2023/07/26 11:19:16;;;;;;;6.78;3.38;;;;;;;;;;8387528;28;20579;-83
2023/07/26 11:23:21;;;;;;;8.93;3.00;;;;;;;;;;8385611;28;20496;-85
2023/07/26 11:27:25;;;;;;;5.88;3.35;;;;;;;;;;8380985;28;20573;-84
2023/07/26 11:31:30;;;;;;;5.35;3.22;;;;;;;;;;8378008;28;20041;-84
2023/07/26 11:35:41;;;;;;;6.47;3.30;;;;;;;;;;8381415;28;20044;-91
2023/07/26 11:39:44;;;;;;;5.82;3.70;;;;;;;;;;8393672;28;20477;-85
2023/07/26 11:43:48;;;;;;;8.68;3.83;;;;;;;;;;8380572;28;20140;-90
2023/07/26 11:47:51;;;;;;;8.25;3.67;;;;;;;;;;8384228;28;20378;-94
2023/07/26 11:51:54;;;;;;;12.32;3.78;;;;;;;;;;8386262;28;20048;-92
2023/07/26 11:55:57;;;;;;;9.60;3.67;;;;;;;;;;8390197;28;20535;-87
2023/07/26 12:00:04;;;;;;;8.05;3.25;;;;;;;;;;8401769;28;20041;-91
2023/07/26 12:04:11;;;;;;;6.15;3.20;;;;;;;;;;8395320;28;20199;-84
2023/07/26 12:08:14;;;;;;;7.35;3.72;;;;;;;;;;8387185;28;20127;-83
2023/07/26 12:12:17;;;;;;;9.23;3.35;;;;;;;;;;8383508;28;20072;-85
2023/07/26 12:16:31;;;;;;;8.35;4.10;;;;;;;;;;8383776;28;20106;-85
2023/07/26 12:20:35;;;;;;;9.52;4.30;;;;;;;;;;8371832;28;20515;-91
2023/07/26 12:24:51;;;;;;;6.95;3.58;;;;;;;;;;8375511;28;20151;-84
2023/07/26 12:28:55;;;;;;;5.95;3.88;;;;;;;;;;8375005;28;20040;-85
2023/07/26 12:33:15;;;;;;;9.98;3.85;;;;;;;;;;8403042;28;20119;-91
2023/07/26 12:37:18;;;;;;;8.98;4.90;;;;;;;;;;8406005;28;20049;-87
2023/07/26 12:41:23;;;;;;;10.20;4.40;;;;;;;;;;8389306;28;20561;-88
2023/07/26 12:45:26;;;;;;;6.28;3.70;;;;;;;;;;8380758;28;20072;-88
2023/07/26 12:49:30;;;;;;;11.43;4.75;;;;;;;;;;8386574;28;20487;-86
2023/07/26 12:53:33;;;;;;;7.32;4.10;;;;;;;;;;8369359;28;20618;-85
2023/07/26 12:57:36;;;;;;;7.93;3.80;;;;;;;;;;8405246;28;20132;-86
2023/07/26 13:01:39;;;;;;;6.47;3.80;;;;;;;;;;8397371;28;20476;-85
2023/07/26 13:05:44;;;;;;;7.63;2.70;;;;;;;;;;8372222;28;20144;-85
2023/07/26 13:09:47;;;;;;;6.22;2.90;;;;;;;;;;8392550;28;20048;-85
2023/07/26 13:13:50;;;;;;;5.95;3.42;;;;;;;;;;8408240;28;20045;-85
2023/07/26 13:17:54;;;;;;;5.90;3.40;;;;;;;;;;8413084;28;20483;-84
2023/07/26 13:21:58;;;;;;;7.22;3.67;;;;;;;;;;8414840;28;20240;-84
2023/07/26 13:26:02;;;;;;;5.55;3.45;;;;;;;;;;8385406;28;20174;-91
2023/07/26 13:30:06;;;;;;;7.45;3.33;;;;;;;;;;8394640;28;20055;-84
2023/07/26 13:34:11;;;;;;;6.95;3.40;;;;;;;;;;8398666;28;20123;-85
2023/07/26 13:38:16;;;;;;;7.38;3.40;;;;;;;;;;8393824;28;20060;-90
2023/07/26 13:42:19;;;;;;;6.88;3.67;;;;;;;;;;8384457;28;20056;-91
2023/07/26 13:46:23;;;;;;;7.28;4.00;;;;;;;;;;8402432;28;20045;-92
2023/07/26 13:50:26;;;;;;;6.50;4.28;;;;;;;;;;8388443;28;20076;-91
2023/07/26 13:54:30;;;;;;;6.65;4.03;;;;;;;;;;8409116;28;20146;-89
2023/07/26 13:58:33;;;;;;;6.60;4.25;;;;;;;;;;8409846;28;20044;-90
2023/07/26 14:02:36;;;;;;;6.97;4.45;;;;;;;;;;8417200;28;20420;-90
2023/07/26 14:06:39;;;;;;;7.63;4.13;;;;;;;;;;8411818;28;20086;-91
2023/07/26 14:10:44;;;;;;;14.20;6.40;;;;;;;;;;8421918;28;20082;-91
2023/07/26 14:14:46;;;;;;;6.95;4.45;;;;;;;;;;8423102;28;20069;-90
2023/07/26 14:18:49;;;;;;;9.82;4.78;;;;;;;;;;8419586;28;20040;-90
2023/07/26 14:22:52;;;;;;;7.30;4.70;;;;;;;;;;8426699;28;20047;-89
2023/07/26 14:26:56;;;;;;;6.25;3.83;;;;;;;;;;8407006;28;20467;-91
2023/07/26 14:30:59;;;;;;;11.45;5.38;;;;;;;;;;8434415;28;20051;-91
2023/07/26 14:35:02;;;;;;;7.95;4.07;;;;;;;;;;8420299;28;20043;-89
2023/07/26 14:39:06;;;;;;;7.72;4.70;;;;;;;;;;8408857;28;20049;-91
2023/07/26 14:43:10;;;;;;;12.70;6.65;;;;;;;;;;8410350;28;20053;-90
2023/07/26 14:47:13;;;;;;;10.02;6.95;;;;;;;;;;8380226;28;20059;-90
2023/07/26 14:51:16;;;;;;;9.00;6.10;;;;;;;;;;8382036;28;20041;-91
2023/07/26 14:55:19;;;;;;;7.70;5.28;;;;;;;;;;8392298;28;20886;-90
2023/07/26 14:59:23;;;;;;;10.18;5.00;;;;;;;;;;8399458;28;20051;-91
2023/07/26 15:03:26;;;;;;;9.23;6.22;;;;;;;;;;8399152;28;20098;-90
2023/07/26 15:07:32;;;;;;;11.48;6.72;;;;;;;;;;8399063;28;20045;-91
2023/07/26 15:11:35;;;;;;;11.02;6.93;;;;;;;;;;8399357;28;20095;-91
2023/07/26 15:15:42;;;;;;;13.73;6.38;;;;;;;;;;8412518;28;20071;-88
2023/07/26 15:19:45;;;;;;;12.35;6.35;;;;;;;;;;8406565;28;20043;-90
2023/07/26 15:23:51;;;;;;;7.75;5.95;;;;;;;;;;8404196;28;20213;-90
2023/07/26 15:27:54;;;;;;;11.02;5.30;;;;;;;;;;8404048;28;20040;-92
2023/07/26 15:31:59;;;;;;;16.50;9.10;;;;;;;;;;8418180;28;20052;-90
2023/07/26 15:36:02;;;;;;;7.82;5.80;;;;;;;;;;8397113;28;20127;-90
2023/07/26 15:40:07;;;;;;;7.85;5.00;;;;;;;;;;8416243;28;20045;-90
2023/07/26 15:44:10;;;;;;;8.25;5.07;;;;;;;;;;8433428;28;20134;-90
2023/07/26 15:48:15;;;;;;;9.55;4.40;;;;;;;;;;8415459;28;20044;-91
2023/07/26 15:52:18;;;;;;;6.63;4.43;;;;;;;;;;8407394;28;20510;-92
2023/07/26 15:56:22;;;;;;;12.38;5.10;;;;;;;;;;8385731;28;20553;-91
2023/07/26 16:00:26;;;;;;;8.25;4.40;;;;;;;;;;8404952;28;20136;-91
2023/07/26 16:04:32;;;;;;;6.55;3.92;;;;;;;;;;8390414;28;20052;-91
2023/07/26 16:08:35;;;;;;;6.53;3.83;;;;;;;;;;8417486;28;20089;-91
2023/07/26 16:12:39;;;;;;;10.30;4.63;;;;;;;;;;8397955;28;20040;-90
2023/07/26 16:16:42;;;;;;;9.98;4.88;;;;;;;;;;8397316;28;20446;-90
2023/07/26 16:20:49;;;;;;;8.25;4.80;;;;;;;;;;8370264;28;20041;-85
2023/07/26 16:24:53;;;;;;;11.45;4.60;;;;;;;;;;8394990;28;20139;-88
2023/07/26 16:28:56;;;;;;;8.23;4.97;;;;;;;;;;8408116;28;20048;-83
2023/07/26 16:32:59;;;;;;;12.18;5.38;;;;;;;;;;8402304;28;20071;-84
2023/07/26 16:37:05;;;;;;;7.57;5.28;;;;;;;;;;8397803;28;20037;-84
2023/07/26 16:41:08;;;;;;;10.80;5.20;;;;;;;;;;8388972;28;20044;-86
2023/07/26 16:45:13;;;;;;;7.95;5.10;;;;;;;;;;8410501;28;20080;-89
2023/07/26 16:49:16;;;;;;;13.13;5.60;;;;;;;;;;8404405;28;20532;-85
2023/07/26 16:53:20;;;;;;;9.60;5.40;;;;;;;;;;8389754;28;20560;-88
2023/07/26 16:57:24;;;;;;;13.23;6.78;;;;;;;;;;8390847;28;20071;-93
2023/07/26 17:01:31;;;;;;;8.13;4.93;;;;;;;;;;8387717;28;20080;-92
2023/07/26 17:05:36;;;;;;;10.25;5.57;;;;;;;;;;8383285;28;20075;-93
2023/07/26 17:09:42;;;;;;;8.77;5.18;;;;;;;;;;8394520;28;20059;-93
2023/07/26 17:13:45;;;;;;;10.82;5.00;;;;;;;;;;8390619;28;20041;-92
2023/07/26 17:17:49;;;;;;;10.07;5.95;;;;;;;;;;8392660;28;20048;-87
2023/07/26 17:21:52;;;;;;;17.42;6.80;;;;;;;;;;8401270;28;20115;-89
2023/07/26 17:26:10;;;;;;;13.48;6.65;;;;;;;;;;8406441;28;20093;-90
2023/07/26 17:30:21;;;;;;;11.77;6.65;;;;;;;;;;8393421;28;20067;-87
2023/07/26 17:34:26;;;;;;;14.27;6.68;;;;;;;;;;8393190;28;20037;-88
2023/07/26 17:38:30;;;;;;;13.35;6.60;;;;;;;;;;8400260;28;20040;-86
2023/07/26 17:42:35;;;;;;;14.35;9.18;;;;;;;;;;8405251;28;20040;-85
2023/07/26 17:46:40;;;;;;;22.65;12.15;;;;;;;;;;8422770;28;20052;-85
2023/07/26 17:50:47;;;;;;;31.23;15.38;;;;;;;;;;8392721;28;20150;-88
2023/07/26 17:54:51;;;;;;;44.47;20.65;;;;;;;;;;8398960;28;20122;-86
2023/07/26 17:59:02;;;;;;;40.40;18.23;;;;;;;;;;8414086;28;20047;-92
2023/07/26 18:03:09;;;;;;;28.55;12.93;;;;;;;;;;8433849;28;20083;-91
2023/07/26 18:07:13;;;;;;;22.98;11.45;;;;;;;;;;8405598;28;20056;-87
2023/07/26 18:11:18;;;;;;;18.63;10.52;;;;;;;;;;8418312;28;20040;-89
2023/07/26 18:15:24;;;;;;;19.20;10.40;;;;;;;;;;8387900;28;20484;-91
2023/07/26 18:19:28;;;;;;;18.02;10.80;;;;;;;;;;8414643;28;20167;-91
2023/07/26 18:23:34;;;;;;;16.63;10.13;;;;;;;;;;8385415;28;20663;-85
2023/07/26 18:27:39;;;;;;;16.95;11.15;;;;;;;;;;8382414;28;20103;-86
2023/07/26 18:31:49;;;;;;;18.52;10.88;;;;;;;;;;8384240;28;20113;-83
2023/07/26 18:36:00;;;;;;;15.70;10.80;;;;;;;;;;8409122;28;20541;-89
2023/07/26 18:40:06;;;;;;;;;;;;;;;;;;8433507;28;20048;-90
2023/07/26 18:44:12;;;;;;;14.10;9.45;;;;;;;;;;8432254;28;19924;-89
2023/07/26 18:48:43;;;;;;;18.65;11.25;;;;;;;;;;8395900;28;20051;-89
2023/07/26 18:52:55;;;;;;;23.60;11.98;;;;;;;;;;8398387;28;20170;-90
2023/07/26 18:57:00;;;;;;;20.85;11.75;;;;;;;;;;8408051;28;20116;-89
2023/07/26 19:01:04;;;;;;;21.95;11.57;;;;;;;;;;8404341;28;20135;-89
2023/07/26 19:05:10;;;;;;;21.05;12.48;;;;;;;;;;8417194;28;20051;-90
2023/07/26 19:09:18;;;;;;;21.58;13.02;;;;;;;;;;8396315;28;20213;-88
2023/07/26 19:13:23;;;;;;;22.98;12.65;;;;;;;;;;8379876;28;20048;-88
2023/07/26 19:17:28;;;;;;;25.88;13.18;;;;;;;;;;8408317;28;20186;-89
2023/07/26 19:21:35;;;;;;;21.33;11.85;;;;;;;;;;8388498;28;20045;-88
2023/07/26 19:25:39;;;;;;;18.45;11.32;;;;;;;;;;8412667;28;20040;-88
2023/07/26 19:29:42;;;;;;;16.85;10.35;;;;;;;;;;8418941;28;20054;-89
2023/07/26 19:33:47;;;;;;;18.10;9.65;;;;;;;;;;8403935;28;20422;-90
2023/07/26 19:37:57;;;;;;;19.27;10.50;;;;;;;;;;8402680;28;20052;-90
2023/07/26 19:42:02;;;;;;;17.63;10.50;;;;;;;;;;8381391;28;20261;-88
2023/07/26 19:46:10;;;;;;;19.02;10.52;;;;;;;;;;8396262;28;20139;-89
2023/07/26 19:50:15;;;;;;;18.02;9.93;;;;;;;;;;8384935;28;20553;-89
2023/07/26 19:54:22;;;;;;;17.33;11.00;;;;;;;;;;8384049;28;20123;-88
2023/07/26 19:58:25;;;;;;;12.13;9.45;;;;;;;;;;8395247;28;20049;-89
2023/07/26 20:02:33;;;;;;;18.23;10.32;;;;;;;;;;8404767;28;20064;-88
2023/07/26 20:06:37;;;;;;;19.27;9.43;;;;;;;;;;8415333;28;20113;-88
2023/07/26 20:10:46;;;;;;;15.40;9.55;;;;;;;;;;8388105;28;20045;-88
2023/07/26 20:14:50;;;;;;;19.10;10.07;;;;;;;;;;8386580;28;20051;-88
2023/07/26 20:18:54;;;;;;;14.40;9.13;;;;;;;;;;8396419;28;20123;-88
2023/07/26 20:22:59;;;;;;;15.07;9.85;;;;;;;;;;8391890;28;20127;-88
2023/07/26 20:27:05;;;;;;;15.90;10.30;;;;;;;;;;8389859;28;20114;-87
2023/07/26 20:31:10;;;;;;;14.77;9.70;;;;;;;;;;8400751;28;20060;-87
2023/07/26 20:35:17;;;;;;;14.98;8.98;;;;;;;;;;8392416;28;21831;-88
2023/07/26 20:39:21;;;;;;;19.10;10.30;;;;;;;;;;8388140;28;20059;-87
2023/07/26 20:43:27;;;;;;;15.45;9.68;;;;;;;;;;8394351;28;20056;-89
2023/07/26 20:47:31;;;;;;;20.20;10.50;;;;;;;;;;8389255;28;20159;-88
2023/07/26 20:51:34;;;;;;;15.98;10.25;;;;;;;;;;8390244;28;20055;-88
2023/07/26 20:55:40;;;;;;;14.98;9.13;;;;;;;;;;8394926;28;20551;-88
2023/07/26 20:59:47;;;;;;;15.82;9.45;;;;;;;;;;8390865;28;20040;-87
2023/07/26 21:03:50;;;;;;;18.50;9.77;;;;;;;;;;8394691;28;20068;-86
2023/07/26 21:07:53;;;;;;;16.10;9.15;;;;;;;;;;8392206;28;20094;-87
2023/07/26 21:11:56;;;;;;;19.05;9.23;;;;;;;;;;8391079;28;20109;-87
2023/07/26 21:16:01;;;;;;;15.43;9.25;;;;;;;;;;8402667;28;20044;-87
2023/07/26 21:20:04;;;;;;;23.90;10.23;;;;;;;;;;8403222;28;20666;-86
2023/07/26 21:24:07;;;;;;;13.02;8.77;;;;;;;;;;8422945;28;20122;-86
2023/07/26 21:28:10;;;;;;;24.67;12.18;;;;;;;;;;8408262;28;20396;-87
2023/07/26 21:32:14;;;;;;;15.13;9.82;;;;;;;;;;8403988;28;20054;-89
2023/07/26 21:36:17;;;;;;;13.93;9.60;;;;;;;;;;8388463;28;20518;-89
2023/07/26 21:40:20;;;;;;;13.10;8.85;;;;;;;;;;8397356;28;20507;-88
2023/07/26 21:44:24;;;;;;;19.00;9.48;;;;;;;;;;8411012;28;20044;-87
2023/07/26 21:48:28;;;;;;;13.85;9.50;;;;;;;;;;8406744;28;20131;-86
2023/07/26 21:52:31;;;;;;;14.95;9.70;;;;;;;;;;8405582;28;20403;-88
2023/07/26 21:56:34;;;;;;;16.38;9.38;;;;;;;;;;8406087;28;20400;-89
2023/07/26 22:00:42;;;;;;;17.92;10.52;;;;;;;;;;8395766;28;20917;-87
2023/07/26 22:04:46;;;;;;;23.60;10.27;;;;;;;;;;8402673;28;20131;-89
2023/07/26 22:08:49;;;;;;;12.98;8.80;;;;;;;;;;8400479;28;20083;-86
2023/07/26 22:12:52;;;;;;;17.92;9.18;;;;;;;;;;8404357;28;20456;-88
2023/07/26 22:16:55;;;;;;;12.38;8.63;;;;;;;;;;8391088;28;20044;-88
2023/07/26 22:21:04;;;;;;;16.45;8.93;;;;;;;;;;8407696;28;20124;-87
2023/07/26 22:25:07;;;;;;;13.73;9.40;;;;;;;;;;8392911;28;20071;-86
2023/07/26 22:29:10;;;;;;;13.60;9.10;;;;;;;;;;8405208;28;20127;-87
2023/07/26 22:33:13;;;;;;;15.43;9.07;;;;;;;;;;8397741;28;20516;-86
2023/07/26 22:37:17;;;;;;;17.15;9.13;;;;;;;;;;8407574;28;20587;-88
2023/07/26 22:41:20;;;;;;;14.40;9.35;;;;;;;;;;8401553;28;20373;-88
2023/07/26 22:45:23;;;;;;;12.95;8.93;;;;;;;;;;8384257;28;20119;-89
2023/07/26 22:49:26;;;;;;;16.83;8.70;;;;;;;;;;8385948;28;20067;-89
2023/07/26 22:53:30;;;;;;;14.32;9.55;;;;;;;;;;8399253;28;20044;-89
2023/07/26 22:57:34;;;;;;;13.15;9.40;;;;;;;;;;8397854;28;20127;-89
2023/07/26 23:01:37;;;;;;;17.27;9.48;;;;;;;;;;8406553;28;20056;-88
2023/07/26 23:05:40;;;;;;;16.08;9.45;;;;;;;;;;8399294;28;20531;-87
2023/07/26 23:09:44;;;;;;;12.88;8.45;;;;;;;;;;8381259;28;20481;-90
2023/07/26 23:13:47;;;;;;;12.98;8.63;;;;;;;;;;8391595;28;20541;-88
2023/07/26 23:17:51;;;;;;;19.05;8.45;;;;;;;;;;8396321;28;20071;-89
2023/07/26 23:21:54;;;;;;;14.93;9.52;;;;;;;;;;8405749;28;20101;-89
2023/07/26 23:25:59;;;;;;;18.08;9.70;;;;;;;;;;8397905;28;20594;-88
2023/07/26 23:30:02;;;;;;;16.75;10.20;;;;;;;;;;8405441;28;20071;-88
2023/07/26 23:34:04;;;;;;;21.20;9.93;;;;;;;;;;8400488;28;20495;-88
2023/07/26 23:38:08;;;;;;;15.30;8.88;;;;;;;;;;8410796;28;20086;-87
2023/07/26 23:42:12;;;;;;;17.80;8.73;;;;;;;;;;8396560;28;20075;-86
2023/07/26 23:46:15;;;;;;;15.45;9.60;;;;;;;;;;8380803;28;20048;-86
2023/07/26 23:50:18;;;;;;;17.02;9.55;;;;;;;;;;8392757;28;20048;-89
2023/07/26 23:54:21;;;;;;;14.45;9.40;;;;;;;;;;8423982;28;20082;-87
2023/07/26 23:58:25;;;;;;;15.32;8.82;;;;;;;;;;8410004;28;20469;-88
